PAPGPASI

Guest
Details From PAPG - Petersburg James A Johnson
To PASI - Sitka Rocky Gutierrez
Flight Number -
Tags Generated
Created
Modified
Stats Distance 81 nm / 149 km
Max Altitude 0 ft / 0 m
Waypoints 2
Social Downloads 0
Likes 0
Share VATSIM

Download

Looking for another format? Having issues loading an existing format? Contact us
Advertisement - Login to hide

Notes

Generated

Route

PAPG PASI

ID Type Via Altitude Latitude Longitude Leg Dist Tot Dist Heading (true) Name
O PAPG APT - 0 ft / 0 m 56.79894˚ -132.95942˚ - 0 nm - -
O PASI APT - 0 ft / 0 m 57.05347˚ -135.37303˚ 80 nm 80 nm 282° / 280° -

Altitude Profile

Advertisement - Login to hide

PAPG

Details ICAO PAPG (PSG)
Name PETERSBURG JAMES A JOHNSON
Region USA (Alaska)
Timezone America/Juneau (UTC-9.0)
Stats Elevation 105 ft / 32 m (AMSL)
Location 56.801651° -132.945289°
Runways 1
Magnetic Variation 18.864° E

METAR

PAPG 172256Z 25003KT 10SM SCT014 BKN047 BKN055 02/01 A2977 RMK AO2 RAE07UPB07E13 SLP084 P0000 T00170011

Decode

TAF

PAPG 172322Z 1800/1824 VRB04KT 6SM -SHRASN BKN025 OVC035 TEMPO 1800/1804 3SM -SHSN BKN015 OVC020 FM180800 VRB05KT P6SM VCSH BKN025 OVC035 FM181400 VRB05KT 5SM -SHSN BKN025 OVC035 FM182100 VRB04KT 6SM -SHSNRA SCT025 OVC035 AMD LTD TO CLD VIS AND WIND 1806/1815

Decode

Departure Runways

ID Width Length Bearing (true) Bearing (mag) Surface Threshold Offset Overrun Length
04 150 ft / 46 m 5,982 ft / 1,823 m 70.70° 51.84° Asphalt 0 ft / 0 m 0 ft / 0 m
22 150 ft / 46 m 5,982 ft / 1,823 m 250.73° 231.87° Asphalt 0 ft / 0 m 0 ft / 0 m

PASI

Details ICAO PASI (SIT)
Name SITKA ROCKY GUTIERREZ
Region USA (Alaska)
Timezone America/Juneau (UTC-9.0)
Stats Elevation 21 ft / 6 m (AMSL)
Location 57.047128° -135.361597°
Runways 1
Magnetic Variation 18.749° E

METAR

PASI 172334Z 07007KT 9SM -RA SCT017 BKN023 OVC039 02/01 A2970

Decode

TAF

PASI 172322Z 1800/1824 14010KT 6SM -SHRA VCTS SCT030CB OVC040 TEMPO 1800/1803 5SM -TSRAPL BKN015CB OVC035 FM180300 12006KT P6SM VCSH BKN050 FM181400 09006KT 6SM -SHSNRA BKN030 BKN050

Decode

Destination Runways

ID Width Length Bearing (true) Bearing (mag) Surface Threshold Offset Overrun Length
11 150 ft / 46 m 6,485 ft / 1,977 m 135.57° 116.82° Asphalt 0 ft / 0 m 0 ft / 0 m
29 150 ft / 46 m 6,485 ft / 1,977 m 315.59° 296.84° Asphalt 0 ft / 0 m 0 ft / 0 m

Approach Navaids

Runway Type Ident Frequency Range Bearing (true) Bearing (mag) Slope Elevation
11 Localiser ISIT 108.90 MHz 18 nm / 33 km 143.51° 124.76° - 15 ft / 5 m (AMSL)
11 DME ISIT 108.90 MHz 18 nm / 33 km - - - 34 ft / 10 m (AMSL)